createdAt,value
2022-12-03T00:02:21.777Z,89.05
2022-12-03T00:04:48.805Z,88.87
2022-12-03T00:07:15.527Z,89.78
2022-12-03T00:09:42.348Z,89.42
2022-12-03T00:12:09.210Z,89.57
2022-12-03T00:14:39.969Z,89.13
2022-12-03T00:17:09.901Z,89.03
2022-12-03T00:19:36.696Z,88.88
2022-12-03T00:22:03.600Z,88.97
2022-12-03T00:24:31.056Z,88.58
2022-12-03T00:26:57.905Z,88.79
2022-12-03T00:29:24.635Z,89.62
2022-12-03T00:31:52.204Z,90.08
2022-12-03T00:34:18.843Z,89.82
2022-12-03T00:36:45.526Z,89.88
2022-12-03T00:39:12.269Z,89.82
2022-12-03T00:41:38.986Z,89.48
2022-12-03T00:44:05.874Z,89.65
2022-12-03T00:46:32.715Z,90.00
2022-12-03T00:48:59.659Z,90.34
2022-12-03T00:51:26.404Z,89.77
2022-12-03T00:53:53.094Z,89.68
2022-12-03T00:56:19.828Z,89.21
2022-12-03T00:58:46.805Z,88.79
2022-12-03T01:01:13.652Z,88.43
2022-12-03T01:03:40.486Z,88.52
2022-12-03T01:06:07.392Z,88.58
2022-12-03T01:08:34.090Z,88.62
2022-12-03T01:11:00.886Z,88.38
2022-12-03T01:13:27.760Z,88.60
2022-12-03T01:15:54.511Z,88.85
2022-12-03T01:18:21.304Z,89.04
2022-12-03T01:20:48.203Z,89.69
2022-12-03T01:23:14.901Z,90.12
2022-12-03T01:25:41.746Z,89.40
2022-12-03T01:28:08.614Z,89.11
2022-12-03T01:30:55.471Z,89.02
2022-12-03T01:33:22.376Z,89.59
2022-12-03T01:35:49.011Z,89.97
2022-12-03T01:38:15.748Z,90.20
2022-12-03T01:40:42.511Z,90.43
2022-12-03T01:43:09.229Z,90.38
2022-12-03T01:45:36.049Z,90.78
2022-12-03T01:48:02.773Z,90.76
2022-12-03T01:50:32.609Z,90.77
2022-12-03T01:53:02.019Z,91.13
2022-12-03T01:55:29.282Z,91.01
2022-12-03T01:58:00.484Z,90.20
2022-12-03T02:00:28.246Z,90.20
2022-12-03T02:03:16.949Z,90.07
2022-12-03T02:05:43.756Z,89.66
2022-12-03T02:08:33.178Z,89.23
2022-12-03T02:11:06.330Z,89.54
2022-12-03T02:13:33.329Z,89.58
2022-12-03T02:16:00.218Z,90.23
2022-12-03T02:18:27.018Z,90.19
2022-12-03T02:21:25.956Z,90.38
2022-12-03T02:24:11.208Z,90.70
2022-12-03T02:26:38.185Z,90.91
2022-12-03T02:29:04.984Z,91.06
2022-12-03T02:31:32.508Z,91.61
2022-12-03T02:33:59.397Z,91.72
2022-12-03T02:36:26.596Z,91.62
2022-12-03T02:38:53.320Z,91.36
2022-12-03T02:41:39.358Z,92.38
2022-12-03T02:44:07.630Z,92.41
2022-12-03T02:46:35.351Z,92.41
2022-12-03T02:49:05.005Z,92.62
2022-12-03T02:51:33.117Z,92.62
2022-12-03T02:54:00.496Z,92.17
2022-12-03T02:56:30.554Z,92.01
2022-12-03T02:59:01.563Z,91.75
2022-12-03T03:01:28.702Z,91.25
2022-12-03T03:03:56.481Z,90.81
2022-12-03T03:06:23.757Z,91.60
2022-12-03T03:08:50.792Z,91.84
2022-12-03T03:11:18.027Z,92.29
2022-12-03T03:13:44.910Z,92.89
2022-12-03T03:16:12.019Z,92.57
2022-12-03T03:18:39.300Z,92.15
2022-12-03T03:21:07.224Z,91.69
2022-12-03T03:23:34.092Z,91.49
2022-12-03T03:26:10.451Z,91.08
2022-12-03T03:28:41.024Z,91.05
2022-12-03T03:31:10.798Z,91.93
2022-12-03T03:33:42.943Z,91.82
2022-12-03T03:36:10.537Z,92.01
2022-12-03T03:38:38.309Z,92.55
2022-12-03T03:41:07.601Z,92.83
2022-12-03T03:43:36.626Z,92.97
2022-12-03T03:46:05.354Z,93.28
2022-12-03T03:48:34.221Z,93.79
2022-12-03T03:51:08.757Z,93.88
2022-12-03T03:53:41.009Z,93.66
2022-12-03T03:56:09.009Z,93.10
2022-12-03T03:58:36.510Z,93.21
2022-12-03T04:01:03.421Z,92.72
2022-12-03T04:03:30.404Z,92.24
2022-12-03T04:05:57.473Z,92.08
2022-12-03T04:08:24.252Z,91.85
2022-12-03T04:11:09.848Z,91.53
2022-12-03T04:13:36.581Z,91.60
2022-12-03T04:16:04.132Z,91.36
2022-12-03T04:18:43.220Z,90.82
2022-12-03T04:21:29.793Z,90.93
2022-12-03T04:23:56.517Z,91.22
2022-12-03T04:26:42.712Z,91.33
2022-12-03T04:29:09.939Z,91.48
2022-12-03T04:31:55.612Z,91.45
2022-12-03T04:34:41.580Z,91.31
2022-12-03T04:37:08.935Z,91.67
2022-12-03T04:39:35.968Z,91.85
2022-12-03T04:42:03.941Z,93.14
2022-12-03T04:44:37.062Z,94.08
2022-12-03T04:47:18.304Z,93.85
2022-12-03T04:49:47.791Z,93.13
2022-12-03T04:52:17.035Z,93.08
2022-12-03T04:54:44.151Z,93.15
2022-12-03T04:57:11.645Z,93.70
2022-12-03T04:59:38.745Z,93.34
2022-12-03T05:02:06.646Z,93.32
2022-12-03T05:04:34.064Z,92.84
2022-12-03T05:07:01.442Z,92.70
2022-12-03T05:09:28.176Z,92.94
2022-12-03T05:11:54.916Z,92.96
2022-12-03T05:14:21.616Z,93.05
2022-12-03T05:16:48.679Z,92.69
2022-12-03T05:19:15.507Z,92.50
2022-12-03T05:21:42.213Z,91.72
2022-12-03T05:24:08.991Z,91.29
2022-12-03T05:26:35.862Z,91.73
2022-12-03T05:29:02.672Z,91.96
2022-12-03T05:31:29.469Z,91.82
2022-12-03T05:33:56.186Z,91.24
2022-12-03T05:36:24.730Z,90.85
2022-12-03T05:38:51.876Z,90.46
2022-12-03T05:41:37.079Z,90.63
2022-12-03T05:44:03.866Z,90.61
2022-12-03T05:46:31.957Z,90.58
2022-12-03T05:48:58.694Z,90.57
2022-12-03T05:51:25.460Z,90.93
2022-12-03T05:53:52.373Z,91.05
2022-12-03T05:56:19.074Z,91.11
2022-12-03T05:58:45.825Z,91.61
2022-12-03T06:01:12.554Z,92.02
2022-12-03T06:03:39.339Z,91.85
2022-12-03T06:06:06.237Z,91.50
2022-12-03T06:08:33.013Z,91.60
2022-12-03T06:10:59.805Z,91.50
2022-12-03T06:13:26.570Z,90.50
2022-12-03T06:15:53.276Z,90.19
2022-12-03T06:18:20.078Z,89.86
2022-12-03T06:20:46.828Z,90.20
2022-12-03T06:23:13.561Z,90.14
2022-12-03T06:25:40.289Z,89.61
2022-12-03T06:28:07.027Z,88.98
2022-12-03T06:30:35.288Z,88.44
2022-12-03T06:33:02.644Z,88.05
2022-12-03T06:35:29.514Z,87.91
2022-12-03T06:37:56.401Z,87.54
2022-12-03T06:40:24.217Z,86.71
2022-12-03T06:42:51.307Z,86.85
2022-12-03T06:45:18.141Z,86.78
2022-12-03T06:47:44.970Z,87.39
2022-12-03T06:50:13.104Z,86.84
2022-12-03T06:52:39.894Z,86.26
2022-12-03T06:55:07.413Z,86.19
2022-12-03T06:57:34.448Z,83.99
2022-12-03T07:00:01.718Z,83.13
2022-12-03T07:02:28.529Z,82.96
2022-12-03T07:04:56.144Z,81.67
2022-12-03T07:07:22.999Z,81.71
2022-12-03T07:09:49.662Z,82.55
2022-12-03T07:12:16.413Z,82.28
2022-12-03T07:14:43.138Z,81.63
2022-12-03T07:17:09.854Z,81.70
2022-12-03T07:19:36.574Z,80.77
2022-12-03T07:22:03.445Z,79.83
2022-12-03T07:24:30.262Z,78.66
2022-12-03T07:26:56.992Z,76.97
2022-12-03T07:29:23.933Z,76.50
2022-12-03T07:31:50.777Z,75.90
2022-12-03T07:34:17.547Z,75.91
2022-12-03T07:36:44.335Z,74.12
2022-12-03T07:39:11.040Z,74.13
2022-12-03T07:41:37.745Z,72.59
2022-12-03T07:44:07.794Z,70.31
2022-12-03T07:46:39.909Z,70.33
2022-12-03T07:49:06.681Z,68.68
2022-12-03T07:51:33.423Z,68.00
2022-12-03T07:54:00.287Z,66.92
2022-12-03T07:56:27.231Z,66.52
2022-12-03T07:58:53.984Z,64.97
2022-12-03T08:01:20.778Z,64.36
2022-12-03T08:03:47.614Z,62.62
2022-12-03T08:06:14.352Z,62.33
2022-12-03T08:08:42.742Z,61.87
2022-12-03T08:11:15.918Z,61.68
2022-12-03T08:13:42.893Z,62.02
2022-12-03T08:16:18.642Z,62.90
2022-12-03T08:18:46.652Z,60.06
2022-12-03T08:21:16.132Z,59.18
2022-12-03T08:23:43.257Z,58.99
2022-12-03T08:26:21.109Z,58.17
2022-12-03T08:28:47.956Z,57.34
2022-12-03T08:31:19.386Z,57.86
2022-12-03T08:33:48.922Z,55.20
2022-12-03T08:36:23.078Z,53.46
2022-12-03T08:39:13.600Z,53.04
2022-12-03T08:41:59.165Z,49.20
2022-12-03T08:44:40.316Z,48.61
2022-12-03T08:47:13.593Z,48.10
2022-12-03T08:49:40.643Z,43.66
2022-12-03T08:52:19.949Z,43.06
2022-12-03T08:54:53.182Z,39.85
2022-12-03T08:57:27.783Z,38.92
2022-12-03T09:00:19.265Z,37.80
2022-12-03T09:02:50.208Z,37.28
2022-12-03T09:05:21.291Z,36.87
2022-12-03T09:07:48.339Z,36.63
2022-12-03T09:10:15.222Z,36.63
2022-12-03T09:12:41.945Z,36.34
2022-12-03T09:15:09.125Z,36.35
2022-12-03T09:17:36.935Z,35.85
2022-12-03T09:20:05.082Z,34.76
2022-12-03T09:22:32.350Z,34.45
2022-12-03T09:24:59.441Z,33.84
2022-12-03T09:27:27.057Z,33.24
2022-12-03T09:29:54.016Z,31.85
2022-12-03T09:32:22.501Z,31.26
2022-12-03T09:34:50.376Z,31.12
2022-12-03T09:37:18.481Z,31.60
2022-12-03T09:39:45.556Z,31.04
2022-12-03T09:42:15.495Z,30.10
2022-12-03T09:44:43.319Z,30.20
2022-12-03T09:47:13.408Z,29.75
2022-12-03T09:49:41.116Z,29.21
2022-12-03T09:52:13.327Z,28.96
2022-12-03T09:54:52.134Z,29.20
2022-12-03T09:57:19.424Z,29.50
2022-12-03T09:59:46.136Z,29.67
2022-12-03T10:02:31.018Z,29.87
2022-12-03T10:04:58.226Z,29.30
2022-12-03T10:07:25.951Z,28.90
2022-12-03T10:09:53.296Z,28.78
2022-12-03T10:12:24.230Z,28.39
2022-12-03T10:14:52.914Z,28.29
2022-12-03T10:17:19.840Z,28.98
2022-12-03T10:19:46.712Z,29.14
2022-12-03T10:22:13.477Z,28.80
2022-12-03T10:24:40.417Z,28.65
2022-12-03T10:27:28.662Z,27.90
2022-12-03T10:30:00.801Z,26.80
2022-12-03T10:32:44.280Z,26.18
2022-12-03T10:35:23.865Z,25.28
2022-12-03T10:38:01.096Z,25.29
2022-12-03T10:40:31.476Z,24.68
2022-12-03T10:43:18.719Z,24.65
2022-12-03T10:46:09.541Z,24.12
2022-12-03T10:48:36.446Z,24.50
2022-12-03T10:51:06.365Z,23.95
2022-12-03T10:53:35.869Z,23.87
2022-12-03T10:56:06.209Z,24.07
2022-12-03T10:58:35.527Z,23.92
2022-12-03T11:01:13.122Z,24.29
2022-12-03T11:03:40.254Z,24.51
2022-12-03T11:06:14.494Z,24.16
2022-12-03T11:08:42.361Z,24.21
2022-12-03T11:11:29.376Z,24.50
2022-12-03T11:13:58.501Z,24.11
2022-12-03T11:16:45.917Z,24.34
2022-12-03T11:19:12.525Z,24.34
2022-12-03T11:22:04.248Z,24.36
2022-12-03T11:24:39.136Z,24.50
2022-12-03T11:27:17.347Z,24.80
2022-12-03T11:29:58.038Z,25.02
2022-12-03T11:32:58.776Z,25.22
2022-12-03T11:35:36.229Z,25.69
2022-12-03T11:38:37.384Z,25.91
2022-12-03T11:41:11.760Z,26.67
2022-12-03T11:43:56.828Z,27.42
2022-12-03T11:46:35.958Z,28.48
2022-12-03T11:49:19.798Z,29.99
2022-12-03T11:51:46.711Z,31.33
2022-12-03T11:54:17.067Z,33.38
2022-12-03T11:56:48.384Z,34.82
2022-12-03T11:59:16.911Z,36.24
2022-12-03T12:01:44.708Z,37.78
2022-12-03T12:04:32.514Z,39.20
2022-12-03T12:07:00.616Z,41.55
2022-12-03T12:09:54.203Z,42.90
2022-12-03T12:12:30.821Z,45.01
2022-12-03T12:14:59.011Z,46.26
2022-12-03T12:17:36.144Z,47.18
2022-12-03T12:20:25.010Z,47.94
2022-12-03T12:22:53.733Z,49.26
2022-12-03T12:25:29.382Z,50.39
2022-12-03T12:27:57.001Z,51.05
2022-12-03T12:30:23.823Z,52.81
2022-12-03T12:32:56.688Z,53.63
2022-12-03T12:35:26.114Z,55.36
2022-12-03T12:38:10.366Z,55.55
2022-12-03T12:40:39.549Z,56.67
2022-12-03T12:43:26.085Z,56.36
2022-12-03T12:46:18.747Z,57.49
2022-12-03T12:48:47.762Z,58.38
2022-12-03T12:51:18.258Z,58.27
2022-12-03T12:53:45.154Z,59.78
2022-12-03T12:56:30.467Z,59.82
2022-12-03T12:59:08.932Z,60.55
2022-12-03T13:01:35.746Z,61.57
2022-12-03T13:04:11.848Z,62.29
2022-12-03T13:06:39.625Z,62.53
2022-12-03T13:09:17.241Z,62.76
2022-12-03T13:11:58.660Z,64.95
2022-12-03T13:14:36.413Z,65.10
2022-12-03T13:17:25.391Z,65.98
2022-12-03T13:20:01.932Z,66.98
2022-12-03T13:22:32.117Z,66.33
2022-12-03T13:25:37.945Z,67.63
2022-12-03T13:28:07.505Z,69.05
2022-12-03T13:30:34.450Z,69.41
2022-12-03T13:33:12.967Z,69.89
2022-12-03T13:35:42.194Z,70.49
2022-12-03T13:38:15.254Z,70.77
2022-12-03T13:40:42.170Z,71.64
2022-12-03T13:43:13.823Z,72.14
2022-12-03T13:45:46.478Z,72.67
2022-12-03T13:48:20.860Z,73.48
2022-12-03T13:50:47.510Z,74.58
2022-12-03T13:53:28.703Z,75.53
2022-12-03T13:56:30.410Z,74.80
2022-12-03T13:58:59.681Z,75.41
2022-12-03T14:01:28.008Z,74.73
2022-12-03T14:03:54.957Z,75.41
2022-12-03T14:06:21.977Z,74.67
2022-12-03T14:08:48.763Z,74.82
2022-12-03T14:11:34.673Z,75.39
2022-12-03T14:14:01.717Z,76.81
2022-12-03T14:16:28.693Z,76.72
2022-12-03T14:18:55.444Z,76.57
2022-12-03T14:21:22.348Z,76.45
2022-12-03T14:23:49.138Z,77.39
2022-12-03T14:26:15.856Z,77.76
2022-12-03T14:28:43.014Z,77.29
2022-12-03T14:31:09.734Z,77.65
2022-12-03T14:33:37.667Z,78.31
2022-12-03T14:36:04.740Z,78.58
2022-12-03T14:38:31.630Z,79.41
2022-12-03T14:40:58.410Z,79.30
2022-12-03T14:43:25.145Z,78.94
2022-12-03T14:45:52.042Z,78.65
2022-12-03T14:48:21.245Z,77.84
2022-12-03T14:50:48.000Z,78.43
2022-12-03T14:53:14.705Z,78.81
2022-12-03T14:55:41.486Z,78.74
2022-12-03T14:58:08.264Z,79.16
2022-12-03T15:00:35.059Z,80.08
2022-12-03T15:03:01.763Z,80.31
2022-12-03T15:05:29.281Z,80.21
2022-12-03T15:07:56.274Z,80.64
2022-12-03T15:10:23.228Z,81.33
2022-12-03T15:12:49.984Z,81.33
2022-12-03T15:15:16.816Z,81.63
2022-12-03T15:17:45.004Z,81.95
2022-12-03T15:20:12.282Z,82.79
2022-12-03T15:22:39.019Z,84.23
2022-12-03T15:25:07.116Z,83.21
2022-12-03T15:27:34.047Z,83.75
2022-12-03T15:30:00.913Z,84.36
2022-12-03T15:32:27.897Z,84.80
2022-12-03T15:34:54.837Z,84.91
2022-12-03T15:37:21.857Z,85.58
2022-12-03T15:39:52.787Z,86.23
2022-12-03T15:42:19.762Z,86.46
2022-12-03T15:44:46.450Z,86.36
2022-12-03T15:47:13.248Z,86.00
2022-12-03T15:49:40.117Z,85.60
2022-12-03T15:52:07.364Z,85.37
2022-12-03T15:54:34.088Z,85.78
2022-12-03T15:57:00.818Z,85.80
2022-12-03T15:59:27.560Z,85.66
2022-12-03T16:01:54.631Z,85.37
2022-12-03T16:04:21.675Z,85.39
2022-12-03T16:06:48.506Z,85.08
2022-12-03T16:09:15.180Z,84.84
2022-12-03T16:11:41.973Z,84.38
2022-12-03T16:14:08.841Z,83.68
2022-12-03T16:16:35.699Z,82.63
2022-12-03T16:19:02.628Z,81.96
2022-12-03T16:21:29.463Z,82.09
2022-12-03T16:23:56.248Z,82.39
2022-12-03T16:26:23.381Z,82.27
2022-12-03T16:28:50.167Z,82.50
2022-12-03T16:31:18.513Z,83.37
2022-12-03T16:33:45.513Z,83.88
2022-12-03T16:36:12.226Z,83.57
2022-12-03T16:38:39.102Z,83.60
2022-12-03T16:41:05.856Z,83.99
2022-12-03T16:43:38.129Z,84.15
2022-12-03T16:46:18.103Z,83.91
2022-12-03T16:48:46.474Z,83.88
2022-12-03T16:51:13.255Z,84.00
2022-12-03T16:53:40.042Z,84.41
2022-12-03T16:56:06.880Z,85.63
2022-12-03T16:58:33.643Z,86.41
2022-12-03T17:01:01.249Z,86.43
2022-12-03T17:03:33.667Z,86.35
2022-12-03T17:06:01.729Z,86.68
2022-12-03T17:08:29.220Z,87.26
2022-12-03T17:10:56.129Z,87.60
2022-12-03T17:13:22.947Z,88.68
2022-12-03T17:15:50.152Z,89.39
2022-12-03T17:18:16.895Z,89.89
2022-12-03T17:20:43.820Z,89.82
2022-12-03T17:23:11.301Z,88.93
2022-12-03T17:25:38.095Z,88.39
2022-12-03T17:28:04.983Z,87.82
2022-12-03T17:30:31.776Z,88.02
2022-12-03T17:32:58.793Z,88.25
2022-12-03T17:35:26.288Z,88.48
2022-12-03T17:37:52.972Z,89.02
2022-12-03T17:40:19.924Z,89.40
2022-12-03T17:42:46.666Z,90.54
2022-12-03T17:45:13.448Z,91.08
2022-12-03T17:47:40.557Z,91.67
2022-12-03T17:50:08.245Z,91.62
2022-12-03T17:52:35.054Z,92.13
2022-12-03T17:55:11.855Z,91.87
2022-12-03T17:57:41.306Z,90.95
2022-12-03T18:00:09.923Z,90.02
2022-12-03T18:02:40.609Z,89.86
2022-12-03T18:05:07.819Z,89.36
2022-12-03T18:07:34.720Z,89.62
2022-12-03T18:10:01.624Z,89.07
2022-12-03T18:12:28.697Z,88.36
2022-12-03T18:14:55.421Z,89.31
2022-12-03T18:17:23.652Z,89.96
2022-12-03T18:19:50.461Z,90.31
2022-12-03T18:22:17.640Z,91.04
2022-12-03T18:24:46.270Z,91.56
2022-12-03T18:27:15.105Z,91.90
2022-12-03T18:29:41.911Z,91.62
2022-12-03T18:32:27.121Z,91.36
2022-12-03T18:34:54.771Z,91.35
2022-12-03T18:37:24.349Z,89.95
2022-12-03T18:39:51.165Z,90.15
2022-12-03T18:42:20.599Z,90.44
2022-12-03T18:44:50.002Z,90.39
2022-12-03T18:47:19.737Z,90.11
2022-12-03T18:49:46.943Z,89.24
2022-12-03T18:52:19.666Z,88.61
2022-12-03T18:54:47.357Z,88.34
2022-12-03T18:57:15.062Z,88.40
2022-12-03T18:59:42.080Z,87.33
2022-12-03T19:03:02.040Z,86.00
2022-12-03T19:05:10.272Z,86.43
2022-12-03T19:07:37.279Z,86.86
2022-12-03T19:10:04.815Z,87.22
2022-12-03T19:12:32.153Z,87.20
2022-12-03T19:14:58.848Z,87.63
2022-12-03T19:17:26.600Z,87.33
2022-12-03T19:19:53.874Z,87.49
2022-12-03T19:22:21.077Z,86.93
2022-12-03T19:24:48.116Z,86.82
2022-12-03T19:27:16.078Z,87.69
2022-12-03T19:29:42.895Z,88.38
2022-12-03T19:32:09.711Z,89.10
2022-12-03T19:34:37.485Z,89.61
2022-12-03T19:37:04.277Z,89.93
2022-12-03T19:39:31.324Z,90.29
2022-12-03T19:41:58.600Z,90.16
2022-12-03T19:44:25.499Z,90.53
2022-12-03T19:46:52.355Z,90.41
2022-12-03T19:49:20.809Z,90.81
2022-12-03T19:51:47.899Z,91.11
2022-12-03T19:54:15.548Z,91.60
2022-12-03T19:56:42.579Z,92.33
2022-12-03T19:59:13.757Z,92.33
2022-12-03T20:01:42.513Z,92.44
2022-12-03T20:04:11.504Z,92.75
2022-12-03T20:06:38.979Z,92.38
2022-12-03T20:09:11.554Z,91.78
2022-12-03T20:11:40.300Z,91.84
2022-12-03T20:14:10.194Z,91.32
2022-12-03T20:16:37.040Z,90.69
2022-12-03T20:19:06.524Z,90.11
2022-12-03T20:21:36.389Z,90.00
2022-12-03T20:24:04.148Z,90.02
2022-12-03T20:26:32.162Z,89.99
2022-12-03T20:28:59.893Z,90.37
2022-12-03T20:31:29.000Z,90.85
2022-12-03T20:33:58.629Z,91.68
2022-12-03T20:36:26.591Z,92.14
2022-12-03T20:38:54.962Z,92.07
2022-12-03T20:41:22.304Z,91.32
2022-12-03T20:43:51.208Z,91.88
2022-12-03T20:46:28.623Z,90.93
2022-12-03T20:48:56.535Z,90.76
2022-12-03T20:51:25.773Z,90.94
2022-12-03T20:53:52.907Z,90.60
2022-12-03T20:56:35.493Z,90.83
2022-12-03T20:59:07.167Z,92.26
2022-12-03T21:01:35.374Z,91.70
2022-12-03T21:04:04.087Z,91.39
2022-12-03T21:06:31.479Z,91.78
2022-12-03T21:08:58.744Z,92.20
2022-12-03T21:11:29.110Z,92.77
2022-12-03T21:13:57.018Z,93.02
2022-12-03T21:16:52.521Z,94.29
2022-12-03T21:19:19.999Z,93.63
2022-12-03T21:21:46.842Z,93.06
2022-12-03T21:24:14.055Z,91.98
2022-12-03T21:26:41.014Z,92.00
2022-12-03T21:29:08.144Z,92.99
2022-12-03T21:31:36.782Z,93.33
2022-12-03T21:34:04.525Z,93.10
2022-12-03T21:36:31.825Z,92.42
2022-12-03T21:38:58.643Z,93.23
2022-12-03T21:41:25.767Z,93.46
2022-12-03T21:43:52.735Z,92.94
2022-12-03T21:47:11.453Z,92.97
2022-12-03T21:49:07.042Z,92.96
2022-12-03T21:51:34.008Z,93.38
2022-12-03T21:54:00.791Z,92.81
2022-12-03T21:56:30.228Z,91.42
2022-12-03T21:58:57.017Z,91.33
2022-12-03T22:01:24.135Z,88.94
2022-12-03T22:03:51.033Z,89.18
2022-12-03T22:06:18.694Z,90.10
2022-12-03T22:08:45.686Z,90.90
2022-12-03T22:11:19.407Z,90.77
2022-12-03T22:13:46.645Z,91.17
2022-12-03T22:16:16.970Z,91.63
2022-12-03T22:18:44.451Z,91.78
2022-12-03T22:21:14.476Z,92.12
2022-12-03T22:23:41.344Z,92.41
2022-12-03T22:26:11.512Z,93.04
2022-12-03T22:28:42.539Z,92.31
2022-12-03T22:31:09.819Z,91.15
2022-12-03T22:33:37.794Z,91.85
2022-12-03T22:36:18.273Z,92.24
2022-12-03T22:38:47.747Z,92.60
2022-12-03T22:41:15.430Z,91.94
2022-12-03T22:43:42.375Z,92.67
2022-12-03T22:46:11.677Z,93.25
2022-12-03T22:48:39.155Z,93.80
2022-12-03T22:51:17.941Z,94.81
2022-12-03T22:53:44.769Z,94.97
2022-12-03T22:56:11.610Z,94.62
2022-12-03T22:58:39.823Z,94.44
2022-12-03T23:01:07.370Z,94.71
2022-12-03T23:03:34.349Z,94.33
2022-12-03T23:06:07.721Z,93.93
2022-12-03T23:08:34.487Z,93.69
2022-12-03T23:11:01.240Z,94.29
2022-12-03T23:13:28.166Z,94.99
2022-12-03T23:15:54.913Z,94.85
2022-12-03T23:18:21.831Z,95.89
2022-12-03T23:20:52.365Z,96.60
2022-12-03T23:23:21.395Z,96.63
2022-12-03T23:26:06.683Z,96.93
2022-12-03T23:28:35.725Z,97.20
2022-12-03T23:31:03.821Z,96.18
2022-12-03T23:33:36.697Z,95.95
2022-12-03T23:36:06.461Z,95.34
2022-12-03T23:38:33.326Z,94.37
2022-12-03T23:41:05.412Z,95.14
2022-12-03T23:43:32.408Z,95.46
2022-12-03T23:46:08.581Z,95.64
2022-12-03T23:48:35.502Z,96.02
2022-12-03T23:51:11.584Z,96.51
2022-12-03T23:53:39.549Z,96.68
2022-12-03T23:56:11.114Z,96.52
2022-12-03T23:58:38.220Z,96.82
